Time;durP1;ratioP1;P1;durP2;ratioP2;P2;SDS_P1;SDS_P2;PMS_P1;PMS_P2;Temp;Humidity;BMP_temperature;BMP_pressure;BME280_temperature;BME280_humidity;BME280_pressure;Samples;Min_cycle;Max_cycle;Signal;HPM_P1;HPM_P2
2023/12/28 00:01:11;;;;;;;4.68;3.20;;;;;;;9.10;55.22;97150.41;4907885;28;20317;-78
2023/12/28 00:03:37;;;;;;;5.07;2.97;;;;;;;9.08;54.99;97162.03;4886962;28;20167;-79
2023/12/28 00:06:02;;;;;;;6.70;2.88;;;;;;;8.93;55.56;97162.59;4886803;28;20288;-78
2023/12/28 00:08:28;;;;;;;5.07;2.90;;;;;;;9.12;54.58;97148.38;4888158;28;20118;-79
2023/12/28 00:10:53;;;;;;;5.07;3.47;;;;;;;9.02;54.30;97152.63;4906247;28;20635;-78
2023/12/28 00:13:19;;;;;;;3.40;3.10;;;;;;;9.23;54.28;97174.50;4903376;28;20046;-79
2023/12/28 00:15:44;;;;;;;3.72;2.95;;;;;;;9.22;54.53;97159.94;4893726;28;20192;-79
2023/12/28 00:18:10;;;;;;;5.05;3.30;;;;;;;9.23;54.80;97164.13;4880149;28;20264;-79
2023/12/28 00:20:35;;;;;;;5.13;3.10;;;;;;;9.26;54.12;97171.44;4884370;28;20226;-79
2023/12/28 00:23:01;;;;;;;4.18;2.50;;;;;;;9.44;53.67;97179.00;4888575;28;20605;-79
2023/12/28 00:25:28;;;;;;;4.28;2.85;;;;;;;9.35;54.26;97157.81;4931067;28;20038;-78
2023/12/28 00:27:53;;;;;;;5.22;3.22;;;;;;;9.25;53.86;97167.25;4890006;28;20193;-79
2023/12/28 00:30:18;;;;;;;3.90;2.90;;;;;;;9.46;53.98;97168.34;4892227;28;20271;-80
2023/12/28 00:32:45;;;;;;;4.53;3.15;;;;;;;9.35;54.12;97167.41;4888396;28;20281;-79
2023/12/28 00:35:11;;;;;;;4.50;3.13;;;;;;;9.57;53.97;97160.47;4897589;28;20046;-79
2023/12/28 00:37:36;;;;;;;4.00;2.75;;;;;;;9.49;53.91;97147.91;4899357;28;20055;-79
2023/12/28 00:40:02;;;;;;;4.82;3.00;;;;;;;9.36;54.15;97141.19;4898613;28;20026;-79
2023/12/28 00:42:27;;;;;;;4.05;2.78;;;;;;;9.71;53.72;97155.72;4907491;28;20256;-79
2023/12/28 00:44:53;;;;;;;4.00;3.45;;;;;;;9.60;54.14;97154.03;4905645;28;20277;-79
2023/12/28 00:47:18;;;;;;;5.93;3.42;;;;;;;9.64;53.60;97165.50;4905554;28;20313;-79
2023/12/28 00:49:44;;;;;;;5.57;2.78;;;;;;;9.66;53.34;97178.28;4883910;28;20272;-78
2023/12/28 00:52:09;;;;;;;4.05;2.75;;;;;;;9.69;53.73;97170.00;4899963;28;20043;-80
2023/12/28 00:54:36;;;;;;;4.97;2.80;;;;;;;9.73;54.15;97164.09;4894767;28;20328;-81
2023/12/28 00:57:05;;;;;;;5.00;2.50;;;;;;;9.92;53.38;97164.63;4872862;28;20283;-80
2023/12/28 00:59:30;;;;;;;3.80;3.30;;;;;;;9.86;53.64;97157.75;4908259;28;20188;-81
2023/12/28 01:01:56;;;;;;;4.57;2.97;;;;;;;9.79;53.62;97149.34;4895510;28;20244;-79
2023/12/28 01:04:25;;;;;;;3.95;2.75;;;;;;;9.75;53.32;97158.66;4873430;28;20038;-79
2023/12/28 01:06:51;;;;;;;4.05;2.80;;;;;;;9.84;53.49;97149.41;4906245;28;20026;-80
2023/12/28 01:09:17;;;;;;;4.43;2.63;;;;;;;9.86;52.76;97141.38;4914120;28;20190;-79
2023/12/28 01:11:42;;;;;;;4.63;2.88;;;;;;;9.94;53.18;97144.34;4901691;28;20233;-80
2023/12/28 01:14:08;;;;;;;5.20;3.20;;;;;;;10.07;53.43;97147.63;4889976;28;20599;-79
2023/12/28 01:16:33;;;;;;;4.03;2.50;;;;;;;10.12;54.34;97147.69;4865423;28;20360;-80
2023/12/28 01:18:59;;;;;;;4.07;2.78;;;;;;;10.21;52.35;97156.66;4889277;28;20057;-81
2023/12/28 01:21:24;;;;;;;3.88;2.70;;;;;;;10.49;51.82;97165.34;4927117;28;20220;-78
2023/12/28 01:23:51;;;;;;;4.60;2.83;;;;;;;10.37;52.83;97165.47;4894731;28;20225;-80
2023/12/28 01:26:17;;;;;;;3.97;3.25;;;;;;;10.35;53.18;97151.91;4874093;28;20351;-79
2023/12/28 01:28:42;;;;;;;3.78;2.78;;;;;;;10.35;53.82;97164.13;4871566;28;20339;-81
2023/12/28 01:31:09;;;;;;;5.13;2.78;;;;;;;10.62;52.01;97185.75;4900985;28;20022;-81
2023/12/28 01:33:35;;;;;;;3.65;2.65;;;;;;;10.49;52.63;97196.56;4902407;28;20206;-81
2023/12/28 01:36:01;;;;;;;4.28;2.65;;;;;;;10.55;52.57;97190.38;4911464;28;20092;-80
2023/12/28 01:38:28;;;;;;;4.00;2.40;;;;;;;10.75;51.09;97204.66;4891474;28;20365;-81
2023/12/28 01:40:53;;;;;;;3.47;2.30;;;;;;;10.78;52.72;97206.75;4874917;28;20626;-79
2023/12/28 01:43:19;;;;;;;3.03;2.22;;;;;;;10.84;53.00;97211.00;4880434;28;20041;-80
2023/12/28 01:45:45;;;;;;;4.03;2.75;;;;;;;10.91;53.88;97214.19;4890385;28;20129;-79
2023/12/28 01:48:10;;;;;;;4.53;2.80;;;;;;;10.74;56.16;97210.91;4888538;28;20194;-79
2023/12/28 01:50:36;;;;;;;3.53;2.33;;;;;;;10.36;58.96;97218.53;4848374;28;20179;-81
2023/12/28 01:53:02;;;;;;;3.50;2.53;;;;;;;10.58;57.86;97217.75;4901701;28;20610;-79
2023/12/28 01:55:28;;;;;;;3.08;2.33;;;;;;;10.79;57.85;97213.56;4892175;28;20848;-80
2023/12/28 01:57:54;;;;;;;3.70;2.55;;;;;;;10.67;59.15;97222.28;4894469;28;20193;-80
2023/12/28 02:00:21;;;;;;;3.40;2.60;;;;;;;10.41;59.78;97207.41;4920637;28;20041;-79
2023/12/28 02:02:47;;;;;;;4.03;3.10;;;;;;;10.60;59.20;97218.28;4888533;28;20034;-79
2023/12/28 02:05:13;;;;;;;3.25;2.13;;;;;;;10.65;59.58;97231.38;4913919;28;20213;-78
2023/12/28 02:07:38;;;;;;;2.97;2.35;;;;;;;10.60;60.04;97237.31;4908422;28;20452;-80
2023/12/28 02:10:04;;;;;;;5.25;3.00;;;;;;;10.58;60.51;97249.00;4917106;28;20648;-79
2023/12/28 02:12:30;;;;;;;4.13;2.35;;;;;;;10.44;61.86;97240.75;4898090;28;20076;-79
2023/12/28 02:14:55;;;;;;;4.35;2.50;;;;;;;10.52;61.67;97237.75;4905378;28;20208;-79
2023/12/28 02:17:30;;;;;;;2.88;2.40;;;;;;;10.54;62.15;97230.47;4880305;28;20107;-79
2023/12/28 02:19:56;;;;;;;3.65;2.95;;;;;;;10.46;62.38;97228.28;4904793;28;20287;-79
2023/12/28 02:22:25;;;;;;;3.13;2.38;;;;;;;10.35;62.74;97224.78;4892837;28;20248;-79
2023/12/28 02:24:53;;;;;;;4.55;3.05;;;;;;;10.49;62.68;97238.22;4882518;28;20022;-79
2023/12/28 02:27:19;;;;;;;5.22;3.90;;;;;;;10.13;63.51;97235.91;4900271;28;20621;-79
2023/12/28 02:29:44;;;;;;;4.75;2.95;;;;;;;10.23;64.06;97239.66;4909988;28;20375;-80
2023/12/28 02:32:09;;;;;;;3.58;2.58;;;;;;;10.13;63.65;97248.91;4908181;28;20341;-79
2023/12/28 02:34:38;;;;;;;3.75;2.97;;;;;;;10.29;63.90;97262.91;4871320;28;20217;-78
2023/12/28 02:37:04;;;;;;;3.50;2.72;;;;;;;10.13;64.13;97254.13;4905141;28;20552;-79
2023/12/28 02:39:30;;;;;;;4.18;2.60;;;;;;;10.24;64.27;97264.66;4924084;28;20650;-79
2023/12/28 02:41:55;;;;;;;3.35;2.50;;;;;;;10.22;64.11;97261.53;4898820;28;20194;-78
2023/12/28 02:44:21;;;;;;;4.05;2.95;;;;;;;10.13;65.50;97258.53;4866285;28;20805;-78
2023/12/28 02:46:46;;;;;;;4.25;3.13;;;;;;;10.10;65.63;97251.22;4891224;28;20044;-79
2023/12/28 02:49:12;;;;;;;4.18;2.90;;;;;;;10.04;66.62;97252.16;4900275;28;20198;-79
2023/12/28 02:51:37;;;;;;;3.42;2.88;;;;;;;10.10;65.41;97259.00;4906904;28;20265;-79
2023/12/28 02:54:03;;;;;;;3.80;2.75;;;;;;;10.02;66.09;97259.41;4904562;28;20194;-78
2023/12/28 02:56:28;;;;;;;4.55;2.80;;;;;;;9.88;66.11;97249.31;4905787;28;20286;-78
2023/12/28 02:58:53;;;;;;;4.07;3.47;;;;;;;9.88;66.14;97257.13;4889836;28;20189;-79
2023/12/28 03:01:19;;;;;;;4.78;3.13;;;;;;;9.81;67.16;97258.34;4891772;28;20209;-78
2023/12/28 03:03:44;;;;;;;4.90;3.00;;;;;;;9.92;66.88;97247.03;4909597;28;20034;-78
2023/12/28 03:06:09;;;;;;;3.50;2.88;;;;;;;9.92;67.24;97260.84;4896923;28;20277;-78
2023/12/28 03:08:35;;;;;;;4.22;3.60;;;;;;;9.76;67.59;97240.84;4904174;28;20233;-78
2023/12/28 03:11:00;;;;;;;5.20;3.53;;;;;;;10.02;66.33;97239.38;4886553;28;20122;-78
2023/12/28 03:13:26;;;;;;;5.68;2.90;;;;;;;9.87;66.95;97228.75;4894826;28;20040;-79
2023/12/28 03:15:51;;;;;;;3.72;2.97;;;;;;;9.78;67.65;97233.56;4900256;28;20635;-79
2023/12/28 03:18:16;;;;;;;4.18;3.20;;;;;;;9.71;68.82;97238.94;4905844;28;20303;-79
2023/12/28 03:20:42;;;;;;;4.85;2.97;;;;;;;9.76;68.64;97222.63;4912328;28;20573;-79
2023/12/28 03:23:08;;;;;;;4.85;3.10;;;;;;;9.89;68.20;97226.72;4878827;28;20042;-78
2023/12/28 03:25:34;;;;;;;4.38;3.10;;;;;;;9.88;68.25;97228.53;4871465;28;20176;-79
2023/12/28 03:27:59;;;;;;;5.10;3.45;;;;;;;9.77;69.03;97228.59;4875872;28;20633;-78
2023/12/28 03:30:26;;;;;;;11.50;4.13;;;;;;;9.88;67.75;97210.31;4896424;28;20197;-80
2023/12/28 03:32:52;;;;;;;11.80;3.40;;;;;;;9.65;69.54;97233.91;4881416;28;20253;-78
2023/12/28 03:35:18;;;;;;;4.10;2.78;;;;;;;9.75;68.82;97227.06;4908187;28;20384;-80
2023/12/28 03:37:44;;;;;;;4.68;3.30;;;;;;;9.96;68.05;97226.56;4905583;28;20946;-78
2023/12/28 03:40:10;;;;;;;4.57;3.20;;;;;;;9.43;70.10;97220.81;4896581;28;20240;-80
2023/12/28 03:42:36;;;;;;;7.35;3.20;;;;;;;9.81;69.12;97214.13;4870556;28;20201;-80
2023/12/28 03:45:01;;;;;;;5.15;3.72;;;;;;;9.72;69.68;97221.53;4913418;28;20196;-80
2023/12/28 03:47:27;;;;;;;5.13;3.67;;;;;;;9.80;69.52;97209.94;4891246;28;20024;-80
2023/12/28 03:49:53;;;;;;;4.13;3.60;;;;;;;9.86;68.89;97204.56;4877754;28;20896;-78
2023/12/28 03:52:18;;;;;;;6.70;3.97;;;;;;;9.90;68.91;97205.69;4915949;28;20209;-79
2023/12/28 03:54:43;;;;;;;4.28;3.38;;;;;;;10.05;68.42;97196.50;4867296;28;20680;-79
2023/12/28 03:57:10;;;;;;;4.38;3.22;;;;;;;9.89;69.02;97206.69;4884973;28;20580;-80
2023/12/28 03:59:35;;;;;;;5.25;2.97;;;;;;;9.82;69.58;97211.28;4900139;28;20033;-80
2023/12/28 04:02:01;;;;;;;4.63;3.53;;;;;;;9.79;69.39;97219.56;4899802;28;20186;-79
2023/12/28 04:04:26;;;;;;;5.97;3.97;;;;;;;9.71;69.76;97227.75;4904909;28;20104;-79
2023/12/28 04:06:52;;;;;;;5.05;3.50;;;;;;;9.98;69.48;97229.72;4891645;28;20625;-79
2023/12/28 04:09:17;;;;;;;4.53;3.58;;;;;;;10.04;69.27;97236.53;4896862;28;20705;-78
2023/12/28 04:11:43;;;;;;;5.68;3.58;;;;;;;10.09;69.18;97231.41;4890484;28;20202;-80
2023/12/28 04:14:08;;;;;;;5.05;3.85;;;;;;;9.80;69.61;97228.13;4872015;28;20125;-80
2023/12/28 04:16:34;;;;;;;7.20;3.92;;;;;;;9.89;69.87;97221.53;4900149;28;20099;-79
2023/12/28 04:18:59;;;;;;;5.00;3.38;;;;;;;9.87;70.24;97229.56;4893007;28;20701;-79
2023/12/28 04:21:25;;;;;;;5.32;3.45;;;;;;;10.00;70.16;97235.47;4892747;28;20563;-79
2023/12/28 04:23:50;;;;;;;4.40;3.33;;;;;;;10.07;69.73;97241.28;4883552;28;20259;-78
2023/12/28 04:26:19;;;;;;;5.18;3.90;;;;;;;9.87;70.74;97226.16;4921978;28;20042;-81
2023/12/28 04:28:46;;;;;;;5.57;3.80;;;;;;;9.94;69.99;97227.59;4889683;28;20339;-79
2023/12/28 04:31:12;;;;;;;5.70;3.67;;;;;;;9.84;70.58;97229.25;4909952;28;20692;-78
2023/12/28 04:33:37;;;;;;;4.90;4.00;;;;;;;9.97;70.16;97233.31;4910638;28;20216;-79
2023/12/28 04:36:04;;;;;;;6.10;3.78;;;;;;;10.03;70.51;97235.00;4903112;28;20215;-78
2023/12/28 04:38:30;;;;;;;6.93;4.38;;;;;;;9.94;70.50;97232.00;4901488;28;20669;-80
2023/12/28 04:40:55;;;;;;;5.57;4.38;;;;;;;10.07;70.03;97236.84;4905233;28;20254;-79
2023/12/28 04:43:23;;;;;;;5.65;3.15;;;;;;;10.11;69.99;97239.78;4913943;28;20195;-78
2023/12/28 04:45:49;;;;;;;4.97;4.10;;;;;;;10.15;70.40;97229.69;4892665;28;20189;-80
2023/12/28 04:48:14;;;;;;;4.28;3.40;;;;;;;10.36;69.69;97238.56;4891780;28;20029;-79
2023/12/28 04:50:40;;;;;;;4.75;3.20;;;;;;;10.02;70.73;97246.41;4888737;28;20651;-79
2023/12/28 04:53:05;;;;;;;3.75;3.20;;;;;;;10.38;69.82;97241.72;4922864;28;20112;-78
2023/12/28 04:55:31;;;;;;;3.53;3.22;;;;;;;10.41;69.46;97236.81;4907552;28;20660;-79
2023/12/28 04:57:56;;;;;;;5.45;3.75;;;;;;;10.34;69.82;97245.84;4903860;28;20197;-78
2023/12/28 05:00:21;;;;;;;4.05;3.20;;;;;;;10.26;69.17;97247.81;4895267;28;20416;-78
2023/12/28 05:02:47;;;;;;;4.65;3.40;;;;;;;10.36;69.69;97249.75;4889093;28;20214;-78
2023/12/28 05:05:12;;;;;;;4.30;3.50;;;;;;;10.27;70.58;97248.59;4909610;28;20198;-80
2023/12/28 05:07:38;;;;;;;4.82;3.00;;;;;;;10.31;70.46;97257.47;4910719;28;20363;-78
2023/12/28 05:10:04;;;;;;;3.28;2.88;;;;;;;10.29;70.65;97255.09;4882109;28;20180;-79
2023/12/28 05:12:30;;;;;;;4.75;2.95;;;;;;;10.39;70.14;97249.28;4898761;28;20193;-78
2023/12/28 05:14:55;;;;;;;4.40;3.55;;;;;;;10.47;70.32;97258.50;4901835;28;20295;-79
2023/12/28 05:17:20;;;;;;;4.00;3.00;;;;;;;10.43;70.55;97258.19;4904330;28;20221;-78
2023/12/28 05:19:47;;;;;;;3.83;3.38;;;;;;;10.23;71.15;97245.66;4909095;28;20308;-79
2023/12/28 05:22:12;;;;;;;3.83;2.90;;;;;;;10.42;70.45;97261.81;4897979;28;20486;-79
2023/12/28 05:24:38;;;;;;;3.00;2.65;;;;;;;10.34;71.04;97262.22;4899809;28;20175;-80
2023/12/28 05:27:03;;;;;;;3.85;2.92;;;;;;;10.51;70.17;97261.41;4907999;28;20292;-78
2023/12/28 05:29:29;;;;;;;2.80;2.38;;;;;;;10.72;69.37;97265.03;4917382;28;20210;-79
2023/12/28 05:31:54;;;;;;;4.03;2.90;;;;;;;10.68;69.38;97273.34;4874644;28;20522;-78
2023/12/28 05:34:19;;;;;;;3.03;2.70;;;;;;;10.56;69.94;97269.28;4912859;28;20196;-80
2023/12/28 05:36:48;;;;;;;3.47;3.08;;;;;;;10.61;70.34;97261.53;4924441;28;20315;-78
2023/12/28 05:39:13;;;;;;;4.38;3.10;;;;;;;10.60;69.42;97255.53;4894740;28;20238;-78
2023/12/28 05:41:40;;;;;;;4.82;3.17;;;;;;;10.40;70.11;97250.06;4913622;28;20304;-81
2023/12/28 05:44:05;;;;;;;4.78;3.30;;;;;;;10.23;71.18;97255.28;4906134;28;20038;-78
2023/12/28 05:46:31;;;;;;;5.85;3.42;;;;;;;10.56;70.11;97267.47;4909584;28;20251;-79
2023/12/28 05:48:56;;;;;;;4.32;3.33;;;;;;;10.53;70.04;97259.34;4910726;28;20198;-79
2023/12/28 05:51:25;;;;;;;4.40;3.30;;;;;;;10.65;69.34;97263.41;4917860;28;20490;-78
2023/12/28 05:53:51;;;;;;;4.82;3.58;;;;;;;10.54;70.04;97260.91;4922881;28;20277;-78
2023/12/28 05:56:16;;;;;;;4.90;3.40;;;;;;;10.77;69.19;97275.53;4897272;28;20577;-80
2023/12/28 05:58:41;;;;;;;6.88;3.60;;;;;;;10.66;69.18;97262.38;4893844;28;20189;-80
2023/12/28 06:01:07;;;;;;;4.95;3.92;;;;;;;10.65;69.28;97263.41;4912044;28;20182;-79
2023/12/28 06:03:32;;;;;;;6.22;3.53;;;;;;;10.61;69.51;97269.34;4894201;28;20302;-78
2023/12/28 06:05:58;;;;;;;4.90;3.30;;;;;;;10.64;69.29;97282.66;4926736;28;20185;-78
2023/12/28 06:08:24;;;;;;;7.75;4.22;;;;;;;10.71;69.25;97282.50;4889489;28;20252;-78
2023/12/28 06:10:49;;;;;;;4.60;3.55;;;;;;;10.51;70.12;97253.59;4909702;28;20536;-78
2023/12/28 06:13:15;;;;;;;4.00;3.55;;;;;;;10.55;70.16;97263.28;4887373;28;20202;-80
2023/12/28 06:15:40;;;;;;;6.28;3.78;;;;;;;10.63;69.46;97280.31;4909218;28;20174;-79
2023/12/28 06:18:06;;;;;;;4.55;3.50;;;;;;;10.49;70.44;97277.28;4903942;28;20634;-79
2023/12/28 06:20:31;;;;;;;4.65;3.60;;;;;;;10.50;70.01;97281.44;4923481;28;20035;-79
2023/12/28 06:22:59;;;;;;;5.05;3.88;;;;;;;10.59;70.71;97290.41;4867933;28;20221;-78
2023/12/28 06:25:25;;;;;;;4.88;3.72;;;;;;;10.70;70.05;97286.13;4878764;28;20241;-78
2023/12/28 06:27:50;;;;;;;6.35;4.10;;;;;;;10.72;69.78;97298.91;4913736;28;20220;-79
2023/12/28 06:30:16;;;;;;;4.15;3.72;;;;;;;10.81;68.69;97298.25;4906925;28;20030;-79
2023/12/28 06:32:41;;;;;;;7.53;4.43;;;;;;;10.83;69.06;97292.75;4900666;28;20191;-79
2023/12/28 06:35:07;;;;;;;6.45;3.47;;;;;;;10.74;68.64;97284.59;4893252;28;20715;-79
2023/12/28 06:37:32;;;;;;;5.43;4.22;;;;;;;10.80;68.87;97290.66;4895683;28;20167;-79
2023/12/28 06:39:57;;;;;;;5.53;3.60;;;;;;;10.70;69.08;97280.13;4866104;28;20203;-79
2023/12/28 06:42:23;;;;;;;6.97;3.75;;;;;;;10.72;68.79;97275.47;4913224;28;20661;-79
2023/12/28 06:44:48;;;;;;;5.68;3.55;;;;;;;10.82;69.19;97288.59;4892687;28;20655;-79
2023/12/28 06:47:14;;;;;;;5.03;3.47;;;;;;;10.60;69.81;97289.38;4892950;28;20018;-81
2023/12/28 06:49:39;;;;;;;5.53;3.50;;;;;;;10.64;69.14;97282.66;4910098;28;20172;-79
2023/12/28 06:52:05;;;;;;;4.82;3.75;;;;;;;10.57;70.14;97291.69;4916456;28;20281;-79
2023/12/28 06:54:30;;;;;;;7.28;3.60;;;;;;;10.41;70.17;97273.25;4891402;28;20694;-79
2023/12/28 06:56:55;;;;;;;4.47;3.78;;;;;;;10.71;69.07;97273.88;4923034;28;20208;-80
2023/12/28 06:59:21;;;;;;;4.53;3.70;;;;;;;10.76;69.11;97292.16;4890176;28;20042;-80
2023/12/28 07:01:48;;;;;;;5.88;4.15;;;;;;;10.71;69.12;97286.91;4871792;28;20301;-79
2023/12/28 07:04:13;;;;;;;6.60;3.10;;;;;;;10.54;70.41;97295.56;4876414;28;20834;-80
2023/12/28 07:06:38;;;;;;;5.40;3.75;;;;;;;10.29;71.24;97288.94;4910101;28;20584;-79
2023/12/28 07:09:04;;;;;;;5.55;3.47;;;;;;;10.75;69.56;97288.00;4874054;28;20565;-78
2023/12/28 07:11:30;;;;;;;6.05;4.22;;;;;;;10.79;69.50;97291.69;4865431;28;20204;-79
2023/12/28 07:13:55;;;;;;;6.68;3.40;;;;;;;10.83;68.94;97308.41;4906668;28;20299;-79
2023/12/28 07:16:20;;;;;;;6.75;3.70;;;;;;;10.62;69.52;97305.53;4880859;28;20598;-79
2023/12/28 07:18:46;;;;;;;4.72;4.18;;;;;;;10.62;69.96;97310.75;4891882;28;20655;-78
2023/12/28 07:21:11;;;;;;;5.85;4.05;;;;;;;10.61;69.35;97311.78;4889584;28;20153;-79
2023/12/28 07:23:38;;;;;;;7.38;4.20;;;;;;;10.74;69.56;97318.44;4906709;28;20256;-78
2023/12/28 07:26:03;;;;;;;5.88;4.43;;;;;;;10.68;68.86;97315.00;4895376;28;20209;-79
2023/12/28 07:28:29;;;;;;;7.63;4.85;;;;;;;10.58;69.35;97320.06;4893594;28;20124;-79
2023/12/28 07:30:54;;;;;;;6.28;3.95;;;;;;;10.71;69.56;97326.78;4926623;28;20331;-80
2023/12/28 07:33:20;;;;;;;6.20;4.13;;;;;;;10.80;68.58;97340.94;4916255;28;20167;-79
2023/12/28 07:35:45;;;;;;;6.65;4.10;;;;;;;10.79;69.00;97335.97;4903269;28;20244;-78
2023/12/28 07:38:11;;;;;;;7.40;4.50;;;;;;;10.63;69.34;97342.81;4889631;28;20205;-78
2023/12/28 07:40:37;;;;;;;6.82;4.53;;;;;;;10.76;68.89;97337.25;4873308;28;20193;-79
2023/12/28 07:43:03;;;;;;;7.00;4.22;;;;;;;10.71;69.07;97336.38;4906691;28;20261;-80
2023/12/28 07:45:29;;;;;;;6.95;3.92;;;;;;;10.76;69.03;97328.63;4899568;28;20186;-79
2023/12/28 07:47:54;;;;;;;4.05;3.67;;;;;;;10.80;68.59;97337.56;4907010;28;20197;-79
2023/12/28 07:50:19;;;;;;;6.47;4.05;;;;;;;10.77;68.71;97341.41;4905199;28;20174;-80
2023/12/28 07:52:46;;;;;;;5.50;4.05;;;;;;;10.87;68.41;97343.38;4875439;28;20643;-79
2023/12/28 07:55:12;;;;;;;6.18;4.47;;;;;;;10.87;68.39;97348.56;4915541;28;20720;-80
2023/12/28 07:57:37;;;;;;;7.20;4.53;;;;;;;10.84;68.44;97362.84;4886342;28;20246;-78
2023/12/28 08:00:03;;;;;;;6.47;4.22;;;;;;;10.85;68.47;97356.63;4869898;28;20424;-79
2023/12/28 08:02:29;;;;;;;6.45;4.45;;;;;;;10.76;68.88;97352.88;4897620;28;20026;-79
2023/12/28 08:04:54;;;;;;;6.68;4.10;;;;;;;10.94;68.41;97359.59;4900208;28;20081;-78
2023/12/28 08:07:20;;;;;;;5.65;4.50;;;;;;;10.81;68.67;97347.72;4896457;28;20034;-79
2023/12/28 08:09:45;;;;;;;7.15;4.40;;;;;;;10.60;70.01;97356.28;4909904;28;20041;-78
2023/12/28 08:12:24;;;;;;;5.25;3.90;;;;;;;10.86;69.26;97342.59;4970504;28;20520;-80
2023/12/28 08:14:49;;;;;;;6.70;4.40;;;;;;;10.90;68.77;97358.53;4951610;28;20120;-81
2023/12/28 08:17:15;;;;;;;5.32;4.32;;;;;;;10.74;69.75;97361.94;4969245;28;20947;-79
2023/12/28 08:19:40;;;;;;;5.90;4.07;;;;;;;10.83;69.53;97369.13;4967186;28;20052;-79
2023/12/28 08:22:06;;;;;;;5.90;4.75;;;;;;;10.98;68.40;97342.44;4929999;28;20151;-80
2023/12/28 08:24:32;;;;;;;6.45;4.45;;;;;;;10.80;69.53;97347.97;4952689;28;20036;-80
2023/12/28 08:27:00;;;;;;;7.28;5.18;;;;;;;10.79;69.29;97357.56;4969488;28;20476;-79
2023/12/28 08:29:26;;;;;;;5.20;4.55;;;;;;;10.87;68.77;97356.38;4953628;28;20029;-79
2023/12/28 08:31:52;;;;;;;7.57;4.72;;;;;;;10.84;69.08;97356.88;4965805;28;20143;-80
2023/12/28 08:34:17;;;;;;;6.90;4.88;;;;;;;10.95;68.44;97352.56;4969151;28;20108;-79
2023/12/28 08:36:42;;;;;;;7.70;5.53;;;;;;;10.92;68.94;97359.06;4952923;28;20029;-79
2023/12/28 08:39:08;;;;;;;6.85;4.55;;;;;;;10.97;68.58;97364.34;4950535;28;20038;-79
2023/12/28 08:41:33;;;;;;;6.93;5.03;;;;;;;10.84;68.99;97359.47;4933399;28;20619;-79
2023/12/28 08:43:59;;;;;;;6.45;5.32;;;;;;;10.83;68.43;97348.28;4965611;28;20100;-79
2023/12/28 08:46:25;;;;;;;5.50;4.45;;;;;;;11.00;68.82;97361.25;4953187;28;20692;-80
2023/12/28 08:48:50;;;;;;;5.55;4.43;;;;;;;10.75;69.53;97347.91;4950860;28;20039;-81
2023/12/28 08:51:16;;;;;;;7.38;4.82;;;;;;;11.08;68.37;97373.06;4947551;28;20333;-80
2023/12/28 08:53:42;;;;;;;6.93;4.90;;;;;;;10.87;69.11;97364.97;4942695;28;20161;-80
2023/12/28 08:56:19;;;;;;;5.35;4.03;;;;;;;11.13;67.98;97382.75;4942420;28;20253;-79
2023/12/28 08:58:47;;;;;;;6.18;4.85;;;;;;;11.08;68.04;97385.31;4939217;28;20205;-80
2023/12/28 09:01:30;;;;;;;5.47;4.30;;;;;;;11.12;68.37;97378.56;4947415;28;20631;-79
2023/12/28 09:03:56;;;;;;;4.97;4.13;;;;;;;11.14;67.86;97373.91;4957521;28;20298;-81
2023/12/28 09:06:22;;;;;;;4.97;4.18;;;;;;;11.12;68.71;97386.38;4946450;28;20655;-80
2023/12/28 09:08:49;;;;;;;6.20;4.38;;;;;;;11.04;68.97;97379.78;4926945;28;20192;-80
2023/12/28 09:11:14;;;;;;;5.63;4.38;;;;;;;10.98;68.79;97376.31;4920795;28;20126;-80
2023/12/28 09:13:41;;;;;;;4.53;4.03;;;;;;;10.91;68.59;97375.72;4936706;28;20181;-80
2023/12/28 09:16:09;;;;;;;9.30;5.03;;;;;;;11.03;68.68;97368.56;4959130;28;20224;-80
2023/12/28 09:18:37;;;;;;;6.28;4.90;;;;;;;11.12;68.14;97381.97;4970531;28;20654;-80
2023/12/28 09:21:03;;;;;;;5.93;4.18;;;;;;;10.96;69.21;97380.19;4942286;28;20163;-80
2023/12/28 09:23:28;;;;;;;5.45;4.03;;;;;;;10.92;69.42;97384.34;4918147;28;20197;-81
2023/12/28 09:25:53;;;;;;;5.82;5.18;;;;;;;11.02;68.53;97393.06;4895972;28;20234;-80
2023/12/28 09:28:19;;;;;;;6.68;4.40;;;;;;;10.98;68.47;97391.94;4929187;28;20174;-80
2023/12/28 09:30:44;;;;;;;5.13;4.30;;;;;;;10.78;69.37;97386.47;4894242;28;20205;-80
2023/12/28 09:33:10;;;;;;;8.15;4.53;;;;;;;11.17;67.79;97381.22;4927937;28;20229;-80
2023/12/28 09:35:36;;;;;;;5.53;4.43;;;;;;;11.20;68.05;97386.75;4905602;28;20524;-80
2023/12/28 09:38:01;;;;;;;5.93;4.47;;;;;;;10.77;69.64;97390.91;4931236;28;20293;-80
2023/12/28 09:40:26;;;;;;;7.00;4.45;;;;;;;10.87;69.45;97391.03;4913485;28;20173;-80
2023/12/28 09:43:00;;;;;;;6.72;4.20;;;;;;;11.15;68.30;97383.31;4926732;28;20197;-80
2023/12/28 09:45:25;;;;;;;5.80;4.25;;;;;;;11.30;68.21;97391.31;4954680;28;20224;-81
2023/12/28 09:47:51;;;;;;;5.05;3.72;;;;;;;11.33;67.57;97390.81;4913146;28;20656;-80
2023/12/28 09:50:18;;;;;;;4.68;3.95;;;;;;;11.41;67.77;97395.59;4909669;28;20290;-80
2023/12/28 09:52:43;;;;;;;6.03;4.00;;;;;;;11.25;68.06;97393.84;4923996;28;20188;-81
2023/12/28 09:55:08;;;;;;;6.22;3.97;;;;;;;11.22;67.78;97395.13;4934715;28;20643;-79
2023/12/28 09:57:35;;;;;;;3.75;3.42;;;;;;;11.18;67.87;97386.22;4920690;28;20167;-79
2023/12/28 10:00:01;;;;;;;4.65;4.07;;;;;;;11.17;68.02;97392.47;4909458;28;20224;-80
2023/12/28 10:02:26;;;;;;;4.82;4.22;;;;;;;11.32;67.83;97391.84;4917224;28;20175;-80
2023/12/28 10:04:52;;;;;;;4.65;3.88;;;;;;;11.27;67.98;97386.56;4925354;28;20204;-81
2023/12/28 10:07:18;;;;;;;5.13;4.03;;;;;;;11.28;67.70;97382.94;4911643;28;20041;-80
2023/12/28 10:09:44;;;;;;;5.88;3.67;;;;;;;11.37;67.70;97389.28;4930388;28;20210;-80
2023/12/28 10:12:09;;;;;;;5.90;4.03;;;;;;;11.36;66.66;97389.53;4939651;28;20303;-80
2023/12/28 10:14:35;;;;;;;5.35;3.50;;;;;;;11.35;66.92;97393.97;4931148;28;20734;-80
2023/12/28 10:17:02;;;;;;;5.85;4.03;;;;;;;11.32;67.85;97391.84;4928722;28;20186;-80
2023/12/28 10:19:27;;;;;;;5.50;3.90;;;;;;;11.41;67.25;97400.81;4938617;28;20209;-81
2023/12/28 10:21:53;;;;;;;5.30;4.25;;;;;;;11.39;67.37;97392.44;4897111;28;20257;-80
2023/12/28 10:24:18;;;;;;;6.82;4.22;;;;;;;11.20;67.86;97388.56;4912722;28;20282;-80
2023/12/28 10:26:43;;;;;;;10.20;4.18;;;;;;;11.18;68.01;97391.41;4928900;28;20216;-81
2023/12/28 10:29:09;;;;;;;4.68;3.80;;;;;;;11.27;67.38;97393.59;4926707;28;20660;-80
2023/12/28 10:31:34;;;;;;;6.13;4.07;;;;;;;11.44;67.13;97395.09;4911712;28;20280;-80
2023/12/28 10:34:02;;;;;;;7.72;4.80;;;;;;;11.47;66.46;97393.84;4926959;28;20598;-80
2023/12/28 10:36:28;;;;;;;7.63;4.65;;;;;;;11.26;67.99;97392.81;4901936;28;20295;-80
2023/12/28 10:38:54;;;;;;;4.57;3.92;;;;;;;11.48;67.51;97390.22;4951275;28;20249;-81
2023/12/28 10:41:20;;;;;;;6.22;4.30;;;;;;;11.52;66.66;97377.47;4944401;28;20344;-81
2023/12/28 10:44:01;;;;;;;5.30;4.03;;;;;;;11.65;66.29;97394.53;4944919;28;20247;-80
2023/12/28 10:46:31;;;;;;;4.55;4.03;;;;;;;11.55;67.08;97384.78;4920868;28;20293;-81
2023/12/28 10:49:10;;;;;;;4.85;3.83;;;;;;;11.64;66.55;97382.53;4922434;28;20270;-81
2023/12/28 10:51:39;;;;;;;4.55;3.42;;;;;;;11.54;66.66;97385.81;4944230;28;20205;-79
2023/12/28 10:54:04;;;;;;;5.70;3.60;;;;;;;11.52;67.08;97374.88;4893911;28;20286;-79
2023/12/28 10:56:41;;;;;;;4.00;3.53;;;;;;;11.69;66.75;97365.13;4928416;28;20290;-79
2023/12/28 10:59:19;;;;;;;5.30;3.38;;;;;;;11.51;66.87;97366.22;4912125;28;20278;-79
2023/12/28 11:01:47;;;;;;;3.95;3.55;;;;;;;11.44;67.37;97371.63;4928560;28;20330;-81
2023/12/28 11:04:12;;;;;;;4.53;3.45;;;;;;;11.45;67.84;97364.63;4926308;28;20755;-80
2023/12/28 11:06:38;;;;;;;5.28;3.25;;;;;;;11.60;66.81;97358.75;4929517;28;20358;-80
2023/12/28 11:09:05;;;;;;;4.85;3.20;;;;;;;11.60;67.42;97361.34;4925444;28;20296;-80
2023/12/28 11:11:31;;;;;;;4.95;3.33;;;;;;;11.68;67.37;97362.75;4912230;28;20194;-80
2023/12/28 11:13:57;;;;;;;4.20;3.40;;;;;;;11.51;67.29;97337.56;4942672;28;20520;-81
2023/12/28 11:16:22;;;;;;;3.88;3.15;;;;;;;11.69;66.87;97344.25;4912588;28;20220;-81
2023/12/28 11:18:48;;;;;;;3.35;2.70;;;;;;;11.47;68.45;97351.34;4933081;28;20099;-79
2023/12/28 11:21:15;;;;;;;4.90;3.25;;;;;;;11.62;67.89;97344.44;4943664;28;20135;-80
2023/12/28 11:23:40;;;;;;;3.13;2.80;;;;;;;11.49;69.28;97341.44;4891369;28;20624;-79
2023/12/28 11:26:18;;;;;;;3.47;2.70;;;;;;;11.67;67.98;97343.72;4928818;28;20175;-80
2023/12/28 11:28:44;;;;;;;2.80;2.42;;;;;;;11.55;68.77;97335.22;4943563;28;20255;-80